Time;durP1;ratioP1;P1;durP2;ratioP2;P2;SDS_P1;SDS_P2;PMS_P1;PMS_P2;Temp;Humidity;BMP_temperature;BMP_pressure;BME280_temperature;BME280_humidity;BME280_pressure;Samples;Min_cycle;Max_cycle;Signal;HPM_P1;HPM_P2
2020/08/28 00:00:29;;;;;;;1.22;1.11;;;;;;;22.36;65.08;99576.56;;;;-52
2020/08/28 00:03:29;;;;;;;1.35;1.25;;;;;;;22.36;65.07;99575.60;;;;-53
2020/08/28 00:06:29;;;;;;;1.42;1.30;;;;;;;22.35;65.12;99576.49;;;;-53
2020/08/28 00:09:29;;;;;;;1.35;1.25;;;;;;;22.35;65.08;99570.06;;;;-53
2020/08/28 00:12:29;;;;;;;1.36;1.26;;;;;;;22.34;65.13;99559.97;;;;-53
2020/08/28 00:15:29;;;;;;;1.29;1.20;;;;;;;22.34;65.10;99555.56;;;;-53
2020/08/28 00:18:29;;;;;;;1.36;1.26;;;;;;;22.34;65.12;99550.01;;;;-53
2020/08/28 00:21:29;;;;;;;1.91;1.10;;;;;;;22.33;65.10;99539.09;;;;-53
2020/08/28 00:24:29;;;;;;;1.25;1.15;;;;;;;22.33;65.13;99537.04;;;;-53
2020/08/28 00:27:29;;;;;;;1.37;1.27;;;;;;;22.33;65.13;99539.81;;;;-53
2020/08/28 00:30:29;;;;;;;1.38;1.23;;;;;;;22.32;65.09;99527.99;;;;-53
2020/08/28 00:33:29;;;;;;;1.21;1.14;;;;;;;22.31;65.16;99526.47;;;;-53
2020/08/28 00:36:29;;;;;;;1.30;1.20;;;;;;;22.31;65.17;99521.73;;;;-53
2020/08/28 00:39:29;;;;;;;1.30;1.20;;;;;;;22.31;65.19;99525.75;;;;-53
2020/08/28 00:42:29;;;;;;;1.32;1.22;;;;;;;22.30;65.20;99522.63;;;;-53
2020/08/28 00:45:29;;;;;;;1.29;1.19;;;;;;;22.30;65.12;99515.21;;;;-53
2020/08/28 00:48:29;;;;;;;1.28;1.18;;;;;;;22.30;65.09;99518.08;;;;-53
2020/08/28 00:51:29;;;;;;;1.35;1.25;;;;;;;22.30;65.20;99517.02;;;;-53
2020/08/28 00:54:29;;;;;;;1.27;1.17;;;;;;;22.30;65.23;99513.27;;;;-53
2020/08/28 00:57:38;;;;;;;1.29;1.20;;;;;;;22.29;65.16;99509.12;;;;-53
2020/08/28 01:03:29;;;;;;;1.54;1.31;;;;;;;22.30;65.17;99497.25;;;;-53
2020/08/28 01:06:29;;;;;;;1.34;1.24;;;;;;;22.29;65.17;99488.64;;;;-53
2020/08/28 01:09:29;;;;;;;1.47;1.29;;;;;;;22.30;65.14;99495.39;;;;-53
2020/08/28 01:12:29;;;;;;;1.27;1.20;;;;;;;22.30;65.14;99488.37;;;;-53
2020/08/28 01:15:29;;;;;;;1.73;1.31;;;;;;;22.29;65.15;99488.80;;;;-53
2020/08/28 01:18:29;;;;;;;1.40;1.30;;;;;;;22.29;65.21;99471.10;;;;-53
2020/08/28 01:21:29;;;;;;;1.40;1.30;;;;;;;22.29;65.20;99476.72;;;;-52
2020/08/28 01:24:29;;;;;;;1.34;1.17;;;;;;;22.28;65.18;99462.04;;;;-53
2020/08/28 01:27:29;;;;;;;1.31;1.21;;;;;;;22.29;65.15;99465.88;;;;-54
2020/08/28 01:30:29;;;;;;;1.17;1.16;;;;;;;22.27;65.18;99464.27;;;;-55
2020/08/28 01:33:29;;;;;;;1.30;1.20;;;;;;;22.28;65.18;99461.31;;;;-54
2020/08/28 01:36:29;;;;;;;1.20;1.10;;;;;;;22.29;65.18;99465.22;;;;-54
2020/08/28 01:39:29;;;;;;;1.38;1.28;;;;;;;22.28;65.17;99459.02;;;;-55
2020/08/28 01:42:29;;;;;;;1.20;1.12;;;;;;;22.28;65.17;99460.08;;;;-54
2020/08/28 01:45:29;;;;;;;1.23;1.11;;;;;;;22.27;65.24;99457.67;;;;-56
2020/08/28 01:48:29;;;;;;;1.29;1.19;;;;;;;22.27;65.18;99460.84;;;;-56
2020/08/28 01:51:29;;;;;;;1.07;1.07;;;;;;;22.28;65.21;99457.56;;;;-55
2020/08/28 01:54:29;;;;;;;1.38;1.10;;;;;;;22.27;65.19;99464.45;;;;-54
2020/08/28 01:57:29;;;;;;;1.21;1.10;;;;;;;22.27;65.15;99465.91;;;;-55
2020/08/28 02:00:29;;;;;;;1.27;1.17;;;;;;;22.27;65.17;99464.61;;;;-55
2020/08/28 02:03:29;;;;;;;1.79;1.21;;;;;;;22.26;65.24;99463.95;;;;-55
2020/08/28 02:06:29;;;;;;;1.57;1.23;;;;;;;22.26;65.20;99462.90;;;;-54
2020/08/28 02:09:29;;;;;;;1.28;1.18;;;;;;;22.26;65.28;99469.59;;;;-54
2020/08/28 02:12:29;;;;;;;1.30;1.20;;;;;;;22.26;65.28;99477.27;;;;-55
2020/08/28 02:15:29;;;;;;;1.26;1.20;;;;;;;22.26;65.23;99483.23;;;;-55
2020/08/28 02:18:29;;;;;;;1.27;1.15;;;;;;;22.25;65.20;99478.84;;;;-54
2020/08/28 02:21:29;;;;;;;1.40;1.29;;;;;;;22.26;65.23;99483.97;;;;-56
2020/08/28 02:24:29;;;;;;;1.17;1.10;;;;;;;22.26;65.21;99489.50;;;;-55
2020/08/28 02:27:29;;;;;;;1.63;1.21;;;;;;;22.26;65.30;99483.16;;;;-56
2020/08/28 02:30:29;;;;;;;1.33;1.23;;;;;;;22.26;65.22;99483.16;;;;-55
2020/08/28 02:33:29;;;;;;;1.29;1.19;;;;;;;22.26;65.28;99505.52;;;;-55
2020/08/28 02:36:29;;;;;;;1.27;1.17;;;;;;;22.26;65.20;99500.13;;;;-54
2020/08/28 02:39:29;;;;;;;1.56;1.35;;;;;;;22.25;65.18;99500.97;;;;-55
2020/08/28 02:42:29;;;;;;;1.23;1.19;;;;;;;22.26;65.30;99508.13;;;;-56
2020/08/28 02:45:29;;;;;;;1.19;1.09;;;;;;;22.25;65.16;99513.63;;;;-54
2020/08/28 02:48:29;;;;;;;1.25;1.15;;;;;;;22.25;65.22;99512.88;;;;-54
2020/08/28 02:51:29;;;;;;;1.27;1.17;;;;;;;22.24;65.22;99515.69;;;;-55
2020/08/28 02:54:29;;;;;;;1.22;1.15;;;;;;;22.24;65.18;99523.84;;;;-54
2020/08/28 02:57:29;;;;;;;1.08;1.07;;;;;;;22.24;65.28;99530.84;;;;-55
2020/08/28 03:00:29;;;;;;;1.85;1.20;;;;;;;22.24;65.25;99534.27;;;;-55
2020/08/28 03:03:29;;;;;;;1.20;1.10;;;;;;;22.24;65.26;99536.06;;;;-56
2020/08/28 03:06:29;;;;;;;1.21;1.11;;;;;;;22.24;65.28;99530.19;;;;-55
2020/08/28 03:09:29;;;;;;;1.39;1.21;;;;;;;22.24;65.24;99532.73;;;;-55
2020/08/28 03:12:29;;;;;;;1.21;1.11;;;;;;;22.23;65.24;99537.55;;;;-55
2020/08/28 03:15:29;;;;;;;1.30;1.20;;;;;;;22.23;65.35;99540.75;;;;-55
2020/08/28 03:18:29;;;;;;;1.13;1.12;;;;;;;22.23;65.35;99542.29;;;;-55
2020/08/28 03:21:29;;;;;;;1.25;1.19;;;;;;;22.23;65.37;99544.09;;;;-54
2020/08/28 03:24:29;;;;;;;1.26;1.17;;;;;;;22.22;65.32;99542.28;;;;-55
2020/08/28 03:27:29;;;;;;;1.15;1.05;;;;;;;22.23;65.34;99529.56;;;;-55
2020/08/28 03:30:29;;;;;;;1.41;1.30;;;;;;;22.21;65.34;99529.91;;;;-54
2020/08/28 03:33:29;;;;;;;1.33;1.22;;;;;;;22.21;65.34;99523.70;;;;-54
2020/08/28 03:36:29;;;;;;;1.07;1.07;;;;;;;22.21;65.39;99528.44;;;;-56
2020/08/28 03:39:29;;;;;;;1.24;1.16;;;;;;;22.22;65.40;99514.22;;;;-56
2020/08/28 03:42:29;;;;;;;1.42;1.25;;;;;;;22.20;65.30;99503.22;;;;-54
2020/08/28 03:45:29;;;;;;;1.31;1.20;;;;;;;22.21;65.36;99504.45;;;;-56
2020/08/28 03:48:29;;;;;;;1.30;1.20;;;;;;;22.21;65.35;99501.18;;;;-55
2020/08/28 03:51:29;;;;;;;1.33;1.23;;;;;;;22.20;65.32;99497.34;;;;-56
2020/08/28 03:54:29;;;;;;;1.14;1.10;;;;;;;22.20;65.30;99492.21;;;;-54
2020/08/28 03:57:29;;;;;;;1.19;1.10;;;;;;;22.20;65.42;99501.59;;;;-55
2020/08/28 04:00:29;;;;;;;1.31;1.20;;;;;;;22.20;65.39;99503.81;;;;-55
2020/08/28 04:03:29;;;;;;;1.31;1.21;;;;;;;22.20;65.50;99511.87;;;;-55
2020/08/28 04:06:29;;;;;;;1.35;1.25;;;;;;;22.20;65.45;99518.25;;;;-48
2020/08/28 04:09:29;;;;;;;1.10;1.10;;;;;;;22.20;65.43;99516.86;;;;-49
2020/08/28 04:12:29;;;;;;;1.37;1.27;;;;;;;22.20;65.44;99508.95;;;;-53
2020/08/28 04:15:29;;;;;;;1.10;1.10;;;;;;;22.19;65.41;99508.66;;;;-53
2020/08/28 04:18:29;;;;;;;1.30;1.20;;;;;;;22.19;65.53;99508.08;;;;-53
2020/08/28 04:21:29;;;;;;;1.30;1.20;;;;;;;22.19;65.48;99511.58;;;;-52
2020/08/28 04:24:29;;;;;;;6.01;1.99;;;;;;;22.15;65.81;99512.64;;;;-53
2020/08/28 04:27:29;;;;;;;3.79;2.19;;;;;;;22.09;66.04;99512.42;;;;-52
2020/08/28 04:30:29;;;;;;;6.68;2.48;;;;;;;22.04;66.51;99514.81;;;;-52
2020/08/28 04:33:29;;;;;;;5.89;2.45;;;;;;;21.96;67.14;99513.43;;;;-53
2020/08/28 04:36:29;;;;;;;4.48;2.79;;;;;;;21.92;67.08;99509.27;;;;-53
2020/08/28 04:42:29;;;;;;;4.81;2.48;;;;;;;21.96;66.74;99516.86;;;;-48
2020/08/28 04:45:29;;;;;;;5.81;2.42;;;;;;;21.98;66.60;99511.67;;;;-48
2020/08/28 04:48:29;;;;;;;4.23;2.45;;;;;;;22.00;66.47;99507.14;;;;-48
2020/08/28 04:51:29;;;;;;;2.89;2.17;;;;;;;22.02;66.38;99506.95;;;;-48
2020/08/28 04:54:29;;;;;;;3.79;2.44;;;;;;;22.03;66.33;99514.26;;;;-49
2020/08/28 04:57:29;;;;;;;2.90;2.20;;;;;;;22.05;66.22;99517.01;;;;-49
2020/08/28 05:00:29;;;;;;;5.23;2.25;;;;;;;22.05;66.14;99517.80;;;;-49
2020/08/28 05:03:29;;;;;;;2.92;2.14;;;;;;;22.05;66.15;99511.61;;;;-48
2020/08/28 05:06:29;;;;;;;3.95;2.10;;;;;;;22.05;66.12;99514.45;;;;-49
2020/08/28 05:09:29;;;;;;;3.97;2.14;;;;;;;22.06;66.08;99515.77;;;;-49
2020/08/28 05:12:29;;;;;;;3.09;1.98;;;;;;;22.06;66.14;99522.03;;;;-49
2020/08/28 05:15:29;;;;;;;4.43;2.21;;;;;;;22.06;66.16;99524.33;;;;-52
2020/08/28 05:18:29;;;;;;;5.47;2.09;;;;;;;22.08;66.34;99523.39;;;;-51
2020/08/28 05:21:29;;;;;;;5.55;2.38;;;;;;;22.10;66.31;99521.70;;;;-50
2020/08/28 05:24:29;;;;;;;4.83;2.01;;;;;;;22.11;66.37;99509.62;;;;-60
2020/08/28 05:27:29;;;;;;;3.67;2.02;;;;;;;22.12;66.34;99506.59;;;;-52
2020/08/28 05:30:29;;;;;;;5.58;2.35;;;;;;;22.13;66.27;99511.14;;;;-52
2020/08/28 05:33:29;;;;;;;3.52;2.00;;;;;;;22.12;66.41;99503.97;;;;-50
2020/08/28 05:36:29;;;;;;;3.97;2.00;;;;;;;22.12;66.34;99493.28;;;;-50
2020/08/28 05:39:29;;;;;;;3.39;2.19;;;;;;;22.12;66.34;99493.37;;;;-50
2020/08/28 05:42:29;;;;;;;4.91;2.01;;;;;;;22.13;66.33;99487.23;;;;-52
2020/08/28 05:45:29;;;;;;;4.01;2.15;;;;;;;22.12;66.38;99490.92;;;;-50
2020/08/28 05:48:29;;;;;;;4.13;1.95;;;;;;;22.12;66.33;99485.84;;;;-50
2020/08/28 05:51:29;;;;;;;3.96;2.00;;;;;;;22.12;66.36;99468.63;;;;-52
2020/08/28 05:54:29;;;;;;;3.47;2.13;;;;;;;22.12;66.27;99465.70;;;;-51
2020/08/28 05:57:29;;;;;;;4.65;2.33;;;;;;;22.11;66.24;99461.97;;;;-52
2020/08/28 06:00:29;;;;;;;4.53;2.16;;;;;;;22.12;66.24;99479.81;;;;-52
2020/08/28 06:03:29;;;;;;;3.13;2.10;;;;;;;22.12;66.24;99480.95;;;;-52
2020/08/28 06:06:29;;;;;;;2.31;2.09;;;;;;;22.12;66.17;99485.43;;;;-56
2020/08/28 06:09:29;;;;;;;2.87;2.10;;;;;;;22.12;66.16;99474.75;;;;-55
2020/08/28 06:12:29;;;;;;;2.89;2.13;;;;;;;22.12;66.19;99474.52;;;;-55
2020/08/28 06:15:29;;;;;;;2.51;2.05;;;;;;;22.11;66.23;99484.58;;;;-55
2020/08/28 06:18:29;;;;;;;2.63;2.04;;;;;;;22.11;66.21;99490.78;;;;-52
2020/08/28 06:21:29;;;;;;;4.48;2.10;;;;;;;22.11;66.22;99495.17;;;;-52
2020/08/28 06:24:29;;;;;;;3.05;2.05;;;;;;;22.11;66.17;99499.34;;;;-55
2020/08/28 06:27:29;;;;;;;3.43;1.90;;;;;;;22.11;66.17;99495.42;;;;-56
2020/08/28 06:30:29;;;;;;;4.17;2.07;;;;;;;22.10;66.15;99491.03;;;;-55
2020/08/28 06:33:29;;;;;;;3.72;2.06;;;;;;;22.11;66.15;99492.58;;;;-56
2020/08/28 06:36:29;;;;;;;4.55;2.25;;;;;;;22.10;66.16;99487.11;;;;-55
2020/08/28 06:39:29;;;;;;;4.28;2.19;;;;;;;22.10;66.12;99483.20;;;;-50
2020/08/28 06:42:29;;;;;;;2.77;1.99;;;;;;;22.10;66.09;99480.74;;;;-51
2020/08/28 06:45:29;;;;;;;5.33;2.07;;;;;;;22.10;66.11;99482.14;;;;-55
2020/08/28 06:48:29;;;;;;;3.23;1.92;;;;;;;22.10;66.12;99469.16;;;;-55
2020/08/28 06:51:29;;;;;;;2.63;2.04;;;;;;;22.10;66.12;99466.65;;;;-56
2020/08/28 06:54:29;;;;;;;6.79;2.04;;;;;;;22.11;66.16;99473.47;;;;-56
2020/08/28 06:57:29;;;;;;;6.58;2.03;;;;;;;22.12;66.33;99480.63;;;;-55
2020/08/28 07:00:29;;;;;;;7.52;2.28;;;;;;;22.12;66.23;99490.02;;;;-56
2020/08/28 07:03:29;;;;;;;5.29;2.13;;;;;;;22.12;66.15;99491.23;;;;-55
2020/08/28 07:06:29;;;;;;;3.22;2.04;;;;;;;22.12;66.22;99482.34;;;;-55
2020/08/28 07:09:29;;;;;;;5.45;2.17;;;;;;;22.12;66.25;99493.36;;;;-56
2020/08/28 07:13:29;;;;;;;3.95;2.09;;;;;;;22.12;66.19;99494.42;;;;-56
2020/08/28 07:16:29;;;;;;;4.95;1.90;;;;;;;22.11;66.29;99498.76;;;;-56
2020/08/28 07:19:29;;;;;;;3.45;2.09;;;;;;;22.11;66.18;99499.25;;;;-56
2020/08/28 07:22:29;;;;;;;4.79;2.07;;;;;;;22.12;66.16;99489.69;;;;-56
2020/08/28 07:25:29;;;;;;;4.69;2.01;;;;;;;22.11;66.19;99484.66;;;;-56
2020/08/28 07:28:29;;;;;;;3.23;2.09;;;;;;;22.12;66.08;99483.73;;;;-56
2020/08/28 07:31:29;;;;;;;3.81;2.05;;;;;;;22.11;66.16;99476.98;;;;-55
2020/08/28 07:34:29;;;;;;;3.55;1.95;;;;;;;22.11;66.09;99460.91;;;;-56
2020/08/28 07:37:29;;;;;;;4.11;1.92;;;;;;;22.11;66.11;99447.70;;;;-56
2020/08/28 07:40:29;;;;;;;3.05;1.95;;;;;;;22.11;66.12;99429.91;;;;-56
2020/08/28 07:43:29;;;;;;;4.60;2.03;;;;;;;22.10;66.25;99430.74;;;;-60
2020/08/28 07:46:29;;;;;;;3.98;2.05;;;;;;;22.12;66.39;99431.18;;;;-59
2020/08/28 07:49:29;;;;;;;4.44;2.01;;;;;;;22.15;66.44;99434.23;;;;-57
2020/08/28 07:52:29;;;;;;;5.70;2.11;;;;;;;22.16;66.56;99440.72;;;;-57
2020/08/28 07:55:29;;;;;;;7.32;1.89;;;;;;;22.18;66.62;99442.80;;;;-56
2020/08/28 07:58:29;;;;;;;4.97;2.09;;;;;;;22.20;66.73;99447.16;;;;-55
2020/08/28 08:01:29;;;;;;;4.06;1.94;;;;;;;22.23;66.75;99446.81;;;;-51
2020/08/28 08:04:29;;;;;;;4.15;1.87;;;;;;;22.25;66.72;99443.86;;;;-59
2020/08/28 08:07:29;;;;;;;3.69;1.86;;;;;;;22.27;66.83;99447.08;;;;-58
2020/08/28 08:10:29;;;;;;;3.12;1.85;;;;;;;22.29;66.82;99450.05;;;;-57
2020/08/28 08:13:29;;;;;;;4.88;1.85;;;;;;;22.30;66.77;99447.86;;;;-54
2020/08/28 08:16:29;;;;;;;4.14;2.12;;;;;;;22.32;66.79;99452.50;;;;-56
2020/08/28 08:19:29;;;;;;;5.90;2.05;;;;;;;22.34;66.75;99452.22;;;;-58
2020/08/28 08:22:29;;;;;;;5.20;2.13;;;;;;;22.34;66.69;99450.58;;;;-54
2020/08/28 08:25:29;;;;;;;4.52;1.93;;;;;;;22.36;66.76;99439.61;;;;-58
2020/08/28 08:28:29;;;;;;;3.43;2.01;;;;;;;22.36;66.87;99445.80;;;;-55
2020/08/28 08:31:29;;;;;;;5.99;2.00;;;;;;;22.34;66.56;99431.96;;;;-56
2020/08/28 08:34:29;;;;;;;3.59;1.91;;;;;;;22.33;66.53;99426.84;;;;-49
2020/08/28 08:37:29;;;;;;;2.91;1.89;;;;;;;22.32;66.69;99417.56;;;;-51
2020/08/28 08:40:29;;;;;;;2.94;1.68;;;;;;;22.30;66.44;99410.90;;;;-51
2020/08/28 08:43:29;;;;;;;6.87;2.07;;;;;;;22.30;66.45;99399.41;;;;-51
2020/08/28 08:46:29;;;;;;;4.25;1.95;;;;;;;22.29;66.50;99396.16;;;;-51
2020/08/28 08:49:29;;;;;;;3.77;1.87;;;;;;;22.28;66.49;99381.96;;;;-51
2020/08/28 08:52:29;;;;;;;3.78;1.79;;;;;;;22.27;66.45;99380.79;;;;-51
2020/08/28 08:55:29;;;;;;;3.73;1.74;;;;;;;22.27;66.44;99372.23;;;;-51
2020/08/28 08:58:29;;;;;;;2.40;1.70;;;;;;;22.27;66.40;99374.11;;;;-52
2020/08/28 09:01:29;;;;;;;2.81;1.80;;;;;;;22.26;66.42;99365.52;;;;-51
2020/08/28 09:04:29;;;;;;;1.82;1.60;;;;;;;22.25;66.36;99348.19;;;;-51
2020/08/28 09:07:29;;;;;;;2.35;1.79;;;;;;;22.25;66.33;99354.06;;;;-52
2020/08/28 09:10:29;;;;;;;3.07;1.84;;;;;;;22.24;66.39;99358.22;;;;-51
2020/08/28 09:13:29;;;;;;;3.93;1.80;;;;;;;22.24;66.34;99368.27;;;;-51
2020/08/28 09:16:29;;;;;;;3.92;1.80;;;;;;;22.24;66.33;99366.66;;;;-51
2020/08/28 09:19:29;;;;;;;3.73;1.89;;;;;;;22.24;66.26;99357.34;;;;-51
2020/08/28 09:22:29;;;;;;;3.99;1.89;;;;;;;22.23;66.30;99364.39;;;;-51
2020/08/28 09:25:29;;;;;;;2.85;1.79;;;;;;;22.23;66.38;99364.72;;;;-51
2020/08/28 09:28:29;;;;;;;2.43;1.63;;;;;;;22.23;66.26;99360.71;;;;-52
2020/08/28 09:31:29;;;;;;;1.98;1.78;;;;;;;22.23;66.27;99369.52;;;;-52
2020/08/28 09:34:29;;;;;;;3.37;1.90;;;;;;;22.23;66.25;99373.44;;;;-52
2020/08/28 09:37:29;;;;;;;3.01;1.79;;;;;;;22.23;66.29;99354.98;;;;-52
2020/08/28 09:40:29;;;;;;;2.24;1.79;;;;;;;22.22;66.28;99347.80;;;;-52
2020/08/28 09:43:29;;;;;;;2.85;1.71;;;;;;;22.22;66.17;99331.08;;;;-56
2020/08/28 09:46:29;;;;;;;2.17;1.67;;;;;;;22.22;66.27;99313.54;;;;-55
2020/08/28 09:49:29;;;;;;;2.05;1.68;;;;;;;22.22;66.27;99316.89;;;;-57
2020/08/28 09:52:29;;;;;;;2.44;1.80;;;;;;;22.22;66.27;99313.05;;;;-56
2020/08/28 09:55:29;;;;;;;2.25;1.61;;;;;;;22.22;66.23;99302.05;;;;-55
2020/08/28 09:58:29;;;;;;;2.35;1.79;;;;;;;22.21;66.19;99298.70;;;;-56
2020/08/28 10:01:29;;;;;;;2.73;1.73;;;;;;;22.21;66.21;99290.71;;;;-52
2020/08/28 10:04:29;;;;;;;1.93;1.61;;;;;;;22.21;66.15;99286.72;;;;-51
2020/08/28 10:07:29;;;;;;;2.20;1.70;;;;;;;22.21;66.13;99284.11;;;;-51
2020/08/28 10:10:29;;;;;;;3.79;1.93;;;;;;;22.20;66.10;99290.66;;;;-51
2020/08/28 10:13:29;;;;;;;2.09;1.64;;;;;;;22.21;66.14;99290.08;;;;-51
2020/08/28 10:16:29;;;;;;;2.00;1.62;;;;;;;22.20;66.18;99280.95;;;;-51
2020/08/28 10:19:29;;;;;;;1.83;1.55;;;;;;;22.20;66.18;99287.23;;;;-51
2020/08/28 10:22:29;;;;;;;1.71;1.57;;;;;;;22.20;66.11;99299.72;;;;-51
2020/08/28 10:25:29;;;;;;;2.41;1.61;;;;;;;22.19;66.17;99303.88;;;;-51
2020/08/28 10:28:29;;;;;;;2.31;1.62;;;;;;;22.19;66.10;99306.34;;;;-51
2020/08/28 10:31:29;;;;;;;2.72;1.78;;;;;;;22.19;66.18;99311.16;;;;-51
2020/08/28 10:34:29;;;;;;;1.97;1.50;;;;;;;22.20;66.18;99322.63;;;;-51
2020/08/28 10:37:29;;;;;;;2.93;1.69;;;;;;;22.19;66.11;99331.56;;;;-52
2020/08/28 10:40:29;;;;;;;2.46;1.50;;;;;;;22.19;66.15;99346.17;;;;-51
2020/08/28 10:43:29;;;;;;;2.14;1.70;;;;;;;22.19;66.15;99352.84;;;;-52
2020/08/28 10:46:29;;;;;;;1.93;1.61;;;;;;;22.19;66.11;99355.97;;;;-51
2020/08/28 10:49:29;;;;;;;2.17;1.69;;;;;;;22.19;66.10;99357.75;;;;-51
2020/08/28 10:52:29;;;;;;;2.43;1.75;;;;;;;22.18;66.13;99340.32;;;;-51
2020/08/28 10:55:29;;;;;;;1.76;1.63;;;;;;;22.19;66.16;99332.39;;;;-51
2020/08/28 10:58:29;;;;;;;1.89;1.49;;;;;;;22.18;66.18;99308.50;;;;-51
2020/08/28 11:01:29;;;;;;;1.62;1.48;;;;;;;22.18;66.09;99310.29;;;;-52
2020/08/28 11:04:29;;;;;;;2.13;1.65;;;;;;;22.18;66.07;99305.78;;;;-51
2020/08/28 11:07:29;;;;;;;1.76;1.58;;;;;;;22.18;66.10;99289.64;;;;-51
2020/08/28 11:10:29;;;;;;;1.85;1.60;;;;;;;22.18;66.09;99298.04;;;;-51
2020/08/28 11:13:29;;;;;;;2.37;1.69;;;;;;;22.18;66.13;99297.48;;;;-51
2020/08/28 11:16:29;;;;;;;2.41;1.50;;;;;;;22.17;66.12;99299.45;;;;-51
2020/08/28 11:19:29;;;;;;;2.27;1.60;;;;;;;22.17;66.18;99293.00;;;;-51
2020/08/28 11:22:29;;;;;;;2.60;1.70;;;;;;;22.17;66.11;99281.27;;;;-51
2020/08/28 11:25:29;;;;;;;1.98;1.70;;;;;;;22.17;66.13;99274.81;;;;-51
2020/08/28 11:28:29;;;;;;;1.74;1.61;;;;;;;22.17;66.16;99260.38;;;;-52
2020/08/28 11:31:29;;;;;;;2.25;1.50;;;;;;;22.17;66.13;99247.81;;;;-51
2020/08/28 11:34:29;;;;;;;1.91;1.50;;;;;;;22.17;66.12;99231.50;;;;-51
2020/08/28 11:37:29;;;;;;;1.58;1.39;;;;;;;22.17;66.09;99218.44;;;;-52
2020/08/28 11:40:29;;;;;;;1.76;1.42;;;;;;;22.16;66.14;99210.85;;;;-51
2020/08/28 11:43:29;;;;;;;1.93;1.60;;;;;;;22.16;66.11;99209.22;;;;-51
2020/08/28 11:46:29;;;;;;;2.05;1.58;;;;;;;22.16;66.07;99211.50;;;;-51
2020/08/28 11:49:29;;;;;;;2.28;1.60;;;;;;;22.16;66.07;99201.15;;;;-51
2020/08/28 11:52:29;;;;;;;1.71;1.41;;;;;;;22.16;66.11;99203.61;;;;-53
2020/08/28 11:55:29;;;;;;;1.83;1.50;;;;;;;22.16;66.15;99201.06;;;;-51
2020/08/28 11:58:29;;;;;;;1.54;1.44;;;;;;;22.17;66.06;99209.14;;;;-51
2020/08/28 12:01:29;;;;;;;2.07;1.50;;;;;;;22.17;66.04;99224.73;;;;-51
2020/08/28 12:04:29;;;;;;;1.79;1.45;;;;;;;22.16;66.14;99230.70;;;;-52
2020/08/28 12:07:29;;;;;;;4.85;1.63;;;;;;;22.16;66.22;99225.47;;;;-51
2020/08/28 12:10:29;;;;;;;4.93;1.59;;;;;;;22.16;66.17;99219.11;;;;-51
2020/08/28 12:13:29;;;;;;;1.83;1.49;;;;;;;22.17;66.12;99216.73;;;;-51
2020/08/28 12:16:29;;;;;;;1.98;1.52;;;;;;;22.16;66.03;99200.34;;;;-51
2020/08/28 12:19:29;;;;;;;2.99;1.49;;;;;;;22.16;66.11;99197.62;;;;-51
2020/08/28 12:22:29;;;;;;;3.28;1.56;;;;;;;22.16;66.04;99190.45;;;;-51
2020/08/28 12:25:29;;;;;;;14.71;2.01;;;;;;;22.19;66.40;99194.40;;;;-57
2020/08/28 12:28:29;;;;;;;7.72;1.89;;;;;;;22.21;66.49;99195.91;;;;-50
2020/08/28 12:31:29;;;;;;;7.16;1.69;;;;;;;22.23;66.81;99201.67;;;;-51
2020/08/28 12:34:29;;;;;;;6.99;1.81;;;;;;;22.23;67.19;99216.20;;;;-52
2020/08/28 12:37:29;;;;;;;11.02;1.74;;;;;;;22.26;67.03;99220.05;;;;-59
2020/08/28 12:40:29;;;;;;;6.11;1.61;;;;;;;22.29;67.50;99212.96;;;;-51
2020/08/28 12:43:29;;;;;;;5.82;1.81;;;;;;;22.29;67.16;99211.14;;;;-54
2020/08/28 12:46:29;;;;;;;5.53;1.91;;;;;;;22.30;67.10;99217.22;;;;-53
2020/08/28 12:49:29;;;;;;;7.81;1.84;;;;;;;22.30;67.15;99216.26;;;;-53
2020/08/28 12:52:29;;;;;;;8.77;2.00;;;;;;;22.30;67.08;99217.80;;;;-53
2020/08/28 12:55:29;;;;;;;7.55;1.72;;;;;;;22.30;67.08;99229.63;;;;-54
2020/08/28 12:58:29;;;;;;;6.14;1.92;;;;;;;22.31;67.06;99228.09;;;;-54
2020/08/28 13:01:29;;;;;;;5.52;1.64;;;;;;;22.30;67.04;99229.13;;;;-54
2020/08/28 13:04:29;;;;;;;5.67;1.89;;;;;;;22.30;66.95;99209.08;;;;-55
2020/08/28 13:07:29;;;;;;;5.29;1.75;;;;;;;22.30;66.85;99205.73;;;;-52
2020/08/28 13:10:29;;;;;;;6.15;1.85;;;;;;;22.31;66.82;99209.72;;;;-52
2020/08/28 13:13:29;;;;;;;11.03;2.06;;;;;;;22.30;67.09;99215.53;;;;-47
2020/08/28 13:16:29;;;;;;;4.43;1.76;;;;;;;22.32;67.23;99210.16;;;;-52
2020/08/28 13:19:29;;;;;;;6.97;2.09;;;;;;;22.33;67.12;99210.31;;;;-53
2020/08/28 13:22:29;;;;;;;10.07;1.90;;;;;;;22.36;67.10;99215.13;;;;-54
2020/08/28 13:25:29;;;;;;;5.31;1.69;;;;;;;22.38;67.05;99215.25;;;;-56
2020/08/28 13:28:29;;;;;;;8.51;1.86;;;;;;;22.40;67.03;99202.63;;;;-56
2020/08/28 13:31:29;;;;;;;4.88;1.81;;;;;;;22.41;67.02;99188.06;;;;-51
2020/08/28 13:34:29;;;;;;;4.33;1.70;;;;;;;22.43;66.97;99199.67;;;;-50
2020/08/28 13:37:29;;;;;;;7.83;1.71;;;;;;;22.44;67.05;99199.08;;;;-58
2020/08/28 13:40:29;;;;;;;5.39;1.81;;;;;;;22.44;67.03;99199.08;;;;-62
2020/08/28 13:43:29;;;;;;;8.95;1.85;;;;;;;22.46;67.03;99208.35;;;;-57
2020/08/28 13:46:29;;;;;;;4.57;1.69;;;;;;;22.47;66.96;99211.17;;;;-56
2020/08/28 13:49:29;;;;;;;4.33;1.77;;;;;;;22.48;66.98;99203.40;;;;-56
2020/08/28 13:52:29;;;;;;;5.47;1.81;;;;;;;22.49;66.99;99201.66;;;;-53
2020/08/28 13:55:29;;;;;;;4.56;1.76;;;;;;;22.50;66.95;99207.19;;;;-54
2020/08/28 13:58:29;;;;;;;4.13;1.60;;;;;;;22.50;66.93;99207.10;;;;-56
2020/08/28 14:01:29;;;;;;;4.69;1.82;;;;;;;22.51;66.90;99204.19;;;;-54
2020/08/28 14:04:29;;;;;;;6.21;1.87;;;;;;;22.53;66.88;99204.74;;;;-57
2020/08/28 14:07:29;;;;;;;3.45;1.62;;;;;;;22.53;66.97;99208.73;;;;-59
2020/08/28 14:10:29;;;;;;;5.35;1.55;;;;;;;22.53;66.87;99214.94;;;;-52
2020/08/28 14:13:29;;;;;;;5.67;1.78;;;;;;;22.52;66.88;99212.45;;;;-52
2020/08/28 14:16:29;;;;;;;4.36;1.53;;;;;;;22.52;66.90;99214.66;;;;-52
2020/08/28 14:19:29;;;;;;;3.21;1.57;;;;;;;22.51;66.88;99218.74;;;;-53
2020/08/28 14:22:29;;;;;;;3.75;1.50;;;;;;;22.51;66.84;99206.66;;;;-52
2020/08/28 14:25:29;;;;;;;2.37;1.59;;;;;;;22.50;66.78;99199.24;;;;-53
2020/08/28 14:28:29;;;;;;;4.67;1.54;;;;;;;22.50;66.77;99187.34;;;;-53
2020/08/28 14:31:29;;;;;;;2.33;1.47;;;;;;;22.49;66.70;99186.45;;;;-52
2020/08/28 14:34:29;;;;;;;2.83;1.45;;;;;;;22.48;66.79;99191.78;;;;-53
2020/08/28 14:37:29;;;;;;;3.93;1.51;;;;;;;22.48;66.71;99201.19;;;;-52
2020/08/28 14:40:29;;;;;;;3.07;1.49;;;;;;;22.47;66.65;99197.38;;;;-52
2020/08/28 14:43:29;;;;;;;3.56;1.64;;;;;;;22.48;66.60;99199.08;;;;-53
2020/08/28 14:46:29;;;;;;;3.05;1.59;;;;;;;22.48;66.51;99196.05;;;;-53
2020/08/28 14:49:29;;;;;;;2.81;1.71;;;;;;;22.46;66.57;99186.14;;;;-53
2020/08/28 14:52:29;;;;;;;3.40;1.85;;;;;;;22.47;66.56;99186.76;;;;-52
2020/08/28 14:55:29;;;;;;;4.43;1.53;;;;;;;22.46;66.46;99183.86;;;;-52
2020/08/28 14:58:29;;;;;;;4.19;1.63;;;;;;;22.45;66.49;99185.35;;;;-52
2020/08/28 15:01:29;;;;;;;3.91;1.61;;;;;;;22.46;66.54;99193.91;;;;-53
2020/08/28 15:04:29;;;;;;;2.37;1.43;;;;;;;22.45;66.46;99174.56;;;;-54
2020/08/28 15:07:29;;;;;;;2.53;1.70;;;;;;;22.44;66.46;99173.47;;;;-53
2020/08/28 15:10:29;;;;;;;2.27;1.52;;;;;;;22.44;66.44;99177.30;;;;-53
2020/08/28 15:13:29;;;;;;;2.26;1.47;;;;;;;22.44;66.37;99172.97;;;;-53
2020/08/28 15:16:29;;;;;;;2.07;1.49;;;;;;;22.43;66.39;99164.08;;;;-53
2020/08/28 15:19:29;;;;;;;4.68;1.52;;;;;;;22.43;66.44;99166.14;;;;-56
2020/08/28 15:22:29;;;;;;;2.33;1.40;;;;;;;22.46;66.41;99170.73;;;;-59
2020/08/28 15:25:29;;;;;;;2.20;1.45;;;;;;;22.46;66.43;99162.70;;;;-58
2020/08/28 15:28:29;;;;;;;3.25;1.57;;;;;;;22.46;66.38;99157.97;;;;-58
2020/08/28 15:31:29;;;;;;;3.13;1.55;;;;;;;22.47;66.37;99139.83;;;;-58
2020/08/28 15:34:29;;;;;;;2.88;1.50;;;;;;;22.47;66.32;99121.45;;;;-58
2020/08/28 15:37:29;;;;;;;2.97;1.60;;;;;;;22.46;66.39;99124.52;;;;-57
2020/08/28 15:40:29;;;;;;;4.11;1.40;;;;;;;22.45;66.35;99122.81;;;;-59
2020/08/28 15:43:29;;;;;;;5.93;1.47;;;;;;;22.45;66.34;99134.08;;;;-58
2020/08/28 15:46:29;;;;;;;2.79;1.54;;;;;;;22.45;66.33;99136.95;;;;-59
2020/08/28 15:49:29;;;;;;;2.09;1.50;;;;;;;22.44;66.31;99149.47;;;;-51
2020/08/28 15:52:29;;;;;;;5.55;1.48;;;;;;;22.45;66.36;99149.84;;;;-46
2020/08/28 15:55:29;;;;;;;5.32;1.46;;;;;;;22.46;66.38;99144.81;;;;-51
2020/08/28 15:58:28;;;;;;;2.77;1.41;;;;;;;22.47;66.47;99130.11;;;;-51
2020/08/28 16:01:28;;;;;;;3.97;1.51;;;;;;;22.50;66.46;99132.73;;;;-47
2020/08/28 16:04:28;;;;;;;3.19;1.43;;;;;;;22.51;66.43;99128.61;;;;-53
2020/08/28 16:07:29;;;;;;;6.44;1.50;;;;;;;22.53;66.49;99135.25;;;;-54
2020/08/28 16:10:29;;;;;;;3.41;1.51;;;;;;;22.53;66.45;99124.08;;;;-57
2020/08/28 16:13:29;;;;;;;4.02;1.33;;;;;;;22.55;66.34;99120.27;;;;-46
2020/08/28 16:16:29;;;;;;;3.49;1.51;;;;;;;22.55;66.44;99104.80;;;;-51
2020/08/28 16:19:29;;;;;;;2.56;1.53;;;;;;;22.56;66.41;99124.22;;;;-56
2020/08/28 16:22:29;;;;;;;1.97;1.44;;;;;;;22.58;66.44;99129.96;;;;-56
2020/08/28 16:25:34;;;;;;;3.80;1.44;;;;;;;22.58;66.42;99128.66;;;;-54
2020/08/28 16:28:29;;;;;;;2.17;1.41;;;;;;;22.58;66.38;99119.43;;;;-53
2020/08/28 16:31:28;;;;;;;2.06;1.31;;;;;;;22.59;66.42;99116.77;;;;-50
2020/08/28 16:34:29;;;;;;;2.38;1.43;;;;;;;22.60;66.33;99110.39;;;;-51
2020/08/28 16:37:28;;;;;;;3.28;1.48;;;;;;;22.61;66.30;99104.75;;;;-50
2020/08/28 16:41:29;;;;;;;3.16;1.51;;;;;;;22.62;66.25;99109.59;;;;-51
2020/08/28 16:44:28;;;;;;;3.60;1.56;;;;;;;22.63;66.18;99106.32;;;;-49
2020/08/28 16:47:29;;;;;;;2.73;1.46;;;;;;;22.63;66.27;99101.67;;;;-51
2020/08/28 16:50:29;;;;;;;3.05;1.41;;;;;;;22.63;66.12;99093.42;;;;-52
2020/08/28 16:53:29;;;;;;;4.05;1.41;;;;;;;22.63;66.14;99111.94;;;;-52
2020/08/28 16:56:28;;;;;;;2.49;1.29;;;;;;;22.65;66.15;99119.91;;;;-51
2020/08/28 16:59:29;;;;;;;1.91;1.40;;;;;;;22.64;66.00;99107.26;;;;-55
2020/08/28 17:02:29;;;;;;;3.41;1.37;;;;;;;22.65;65.99;99119.91;;;;-57